Powersville, Georgia
Current Conditions -  °F | °C
As of 7:53 PM on Saturday 25 Oct 2014 (Local Time) from KMCN Reporting Station
Clear Clear  
Wind Chill: 60°   Ceiling: Unl
Heat Index: 60°   Visibility: 10mi
Dew Point: 52°   Wind: 3mph
Humidity: 75%   Direction: 270°W
Pressure: 30.01"   Gusts: NA
Location:  32.6425°N, 83.775°W
Report Text: KMCN 252353Z AUTO 27003KT 10SM CLR 16/11 A3001 RMK AO2 SLP160 T01560111 10250 20150 53006 TSNO
Loading
Personal Weather Stations






























Interactive Weather Map
Tropical Storm Tracking
New forecast layout! Learn more

10-Day Weather Forecast

Advertisements
Track Severe Weather on mobile